Time;durP1;ratioP1;P1;durP2;ratioP2;P2;SDS_P1;SDS_P2;PMS_P1;PMS_P2;Temp;Humidity;BMP_temperature;BMP_pressure;BME280_temperature;BME280_humidity;BME280_pressure;Samples;Min_cycle;Max_cycle;Signal;HPM_P1;HPM_P2
2022/05/14 00:00:33;;;;;;;16.63;12.20;;;14.80;99.90;;;;;;5199138;28;20517;-72
2022/05/14 00:03:06;;;;;;;14.63;11.47;;;14.80;99.90;;;;;;5200839;28;20049;-72
2022/05/14 00:05:38;;;;;;;14.23;10.48;;;14.80;99.90;;;;;;5206520;28;20154;-72
2022/05/14 00:08:12;;;;;;;15.33;11.50;;;14.90;99.90;;;;;;5208602;28;20048;-72
2022/05/14 00:13:37;;;;;;;18.60;12.15;;;14.90;99.90;;;;;;5204772;28;20045;-72
2022/05/14 00:16:10;;;;;;;14.57;9.80;;;14.90;99.90;;;;;;5206975;28;20052;-71
2022/05/14 00:18:44;;;;;;;18.25;12.40;;;15.00;99.90;;;;;;5200510;28;20587;-72
2022/05/14 00:21:16;;;;;;;15.30;11.55;;;15.00;99.90;;;;;;5207394;28;20475;-71
2022/05/14 00:23:49;;;;;;;17.52;12.40;;;15.00;99.90;;;;;;5206486;28;20671;-71
2022/05/14 00:26:22;;;;;;;19.05;13.25;;;15.00;99.90;;;;;;5208003;28;20060;-72
2022/05/14 00:28:54;;;;;;;22.33;14.45;;;15.00;99.90;;;;;;5202296;28;20080;-72
2022/05/14 00:31:27;;;;;;;16.33;12.30;;;14.90;99.90;;;;;;5205242;28;20041;-71
2022/05/14 00:34:00;;;;;;;18.08;12.40;;;14.90;99.90;;;;;;5197333;28;20076;-72
2022/05/14 00:36:33;;;;;;;14.95;12.52;;;14.90;99.90;;;;;;5181656;28;20053;-71
2022/05/14 00:39:06;;;;;;;21.48;13.93;;;15.00;99.90;;;;;;5205947;28;20059;-72
2022/05/14 00:41:39;;;;;;;21.75;12.68;;;15.00;99.90;;;;;;5209486;28;20049;-72
2022/05/14 00:44:12;;;;;;;;;;;15.00;99.90;;;;;;5206911;28;20527;-73
2022/05/14 00:47:01;;;;;;;20.05;13.13;;;14.90;99.90;;;;;;5208820;28;19943;-70
2022/05/14 00:49:35;;;;;;;18.02;13.43;;;14.90;99.90;;;;;;5200020;28;20049;-72
2022/05/14 00:52:13;;;;;;;21.92;12.80;;;14.90;99.90;;;;;;5203794;28;20037;-72
2022/05/14 00:54:52;;;;;;;17.25;12.73;;;14.90;99.90;;;;;;5205473;28;20053;-72
2022/05/14 00:57:27;;;;;;;17.60;11.77;;;14.90;99.90;;;;;;5205629;28;20053;-72
2022/05/14 01:00:02;;;;;;;14.20;11.23;;;14.80;99.90;;;;;;5204371;28;20155;-70
2022/05/14 01:02:35;;;;;;;14.13;11.93;;;14.90;99.90;;;;;;5206429;28;20056;-72
2022/05/14 01:05:09;;;;;;;17.05;11.40;;;14.80;99.90;;;;;;5203484;28;20041;-71
2022/05/14 01:07:42;;;;;;;15.43;11.25;;;14.80;99.90;;;;;;5205449;28;20060;-72
2022/05/14 01:10:16;;;;;;;15.00;11.98;;;14.80;99.90;;;;;;5222135;28;20505;-70
2022/05/14 01:12:55;;;;;;;16.83;12.30;;;14.80;99.90;;;;;;5207955;28;20603;-72
2022/05/14 01:15:50;;;;;;;18.08;12.02;;;14.80;99.90;;;;;;5224725;28;20163;-72
2022/05/14 01:18:27;;;;;;;19.15;13.43;;;14.70;99.90;;;;;;5181180;28;20044;-72
2022/05/14 01:21:07;;;;;;;21.08;14.30;;;14.60;99.90;;;;;;5202040;28;20076;-72
2022/05/14 01:26:54;;;;;;;17.35;12.68;;;14.50;99.90;;;;;;5187019;28;20060;-72
2022/05/14 01:29:26;;;;;;;24.85;14.30;;;14.40;99.90;;;;;;5206296;28;20041;-71
2022/05/14 01:32:05;;;;;;;25.17;16.50;;;14.40;99.90;;;;;;5199004;28;20050;-72
2022/05/14 01:34:37;;;;;;;21.90;12.85;;;14.20;99.90;;;;;;5197332;28;20056;-71
2022/05/14 01:37:11;;;;;;;27.48;15.32;;;14.20;99.90;;;;;;5220303;28;20074;-73
2022/05/14 01:39:46;;;;;;;21.05;15.30;;;14.20;99.90;;;;;;5215895;28;20434;-72
2022/05/14 01:42:18;;;;;;;22.17;14.13;;;14.10;99.90;;;;;;5219021;28;20052;-72
2022/05/14 01:44:52;;;;;;;;;;;14.00;99.90;;;;;;5221423;28;20063;-72
2022/05/14 01:47:24;;;;;;;17.98;13.75;;;13.90;99.90;;;;;;5217711;28;19925;-71
2022/05/14 01:49:57;;;;;;;20.25;13.10;;;13.90;99.90;;;;;;5218200;28;20064;-71
2022/05/14 01:52:30;;;;;;;21.33;13.38;;;13.80;99.90;;;;;;5205471;28;20048;-71
2022/05/14 01:55:03;;;;;;;21.38;12.63;;;13.80;99.90;;;;;;5205901;28;20461;-72
2022/05/14 01:57:36;;;;;;;28.67;14.60;;;13.80;99.90;;;;;;5206265;28;20056;-71
2022/05/14 02:00:11;;;;;;;26.63;16.05;;;13.80;99.90;;;;;;5188919;28;20057;-71
2022/05/14 02:02:47;;;;;;;21.42;13.82;;;13.80;99.90;;;;;;5203887;28;20082;-71
2022/05/14 02:05:21;;;;;;;21.13;15.43;;;13.70;99.90;;;;;;5182450;28;20041;-72
2022/05/14 02:07:57;;;;;;;19.15;14.57;;;13.70;99.90;;;;;;5201756;28;20064;-70
2022/05/14 02:10:29;;;;;;;20.88;14.43;;;13.60;99.90;;;;;;5188095;28;20056;-71
2022/05/14 02:13:02;;;;;;;20.38;14.35;;;13.60;99.90;;;;;;5207091;28;20120;-72
2022/05/14 02:15:35;;;;;;;24.17;15.95;;;13.60;99.90;;;;;;5219496;28;21002;-70
2022/05/14 02:18:08;;;;;;;23.08;14.68;;;13.70;99.90;;;;;;5205267;28;20060;-72
2022/05/14 02:20:40;;;;;;;23.30;15.63;;;13.70;99.90;;;;;;5205762;28;20069;-71
2022/05/14 02:23:13;;;;;;;20.77;14.27;;;13.70;99.90;;;;;;5202590;28;20056;-72
2022/05/14 02:25:46;;;;;;;19.83;13.38;;;13.60;99.90;;;;;;5223224;28;20053;-71
2022/05/14 02:28:19;;;;;;;18.48;13.70;;;13.70;99.90;;;;;;5190048;28;20693;-71
2022/05/14 02:30:52;;;;;;;24.35;14.98;;;13.70;99.90;;;;;;5202074;28;20045;-71
2022/05/14 02:33:27;;;;;;;19.75;14.15;;;13.70;99.90;;;;;;5205185;28;20049;-72
2022/05/14 02:36:00;;;;;;;20.35;13.80;;;13.70;99.90;;;;;;5200803;28;20041;-72
2022/05/14 02:38:35;;;;;;;19.88;14.00;;;13.70;99.90;;;;;;5208063;28;20065;-72
2022/05/14 02:41:08;;;;;;;22.38;13.57;;;13.70;99.90;;;;;;5203739;28;20048;-73
2022/05/14 02:43:41;;;;;;;17.63;13.70;;;13.70;99.90;;;;;;5206124;28;20057;-72
2022/05/14 02:46:14;;;;;;;;;;;13.60;99.90;;;;;;5208721;28;20048;-71
2022/05/14 02:48:47;;;;;;;23.38;15.25;;;13.50;99.90;;;;;;5195453;28;19929;-71
2022/05/14 02:51:20;;;;;;;22.05;15.35;;;13.50;99.90;;;;;;5198205;28;20044;-72
2022/05/14 02:53:53;;;;;;;23.23;14.95;;;13.40;99.90;;;;;;5206446;28;20041;-72
2022/05/14 02:56:25;;;;;;;18.25;12.73;;;13.30;99.90;;;;;;5208835;28;20716;-71
2022/05/14 02:59:07;;;;;;;18.35;13.68;;;13.30;99.90;;;;;;5205110;28;20049;-73
2022/05/14 03:01:48;;;;;;;21.58;13.98;;;13.30;99.90;;;;;;5205572;28;20677;-71
2022/05/14 03:04:28;;;;;;;17.73;12.05;;;13.30;99.90;;;;;;5222017;28;20493;-72
2022/05/14 03:07:07;;;;;;;19.50;12.77;;;13.30;99.90;;;;;;5210633;28;20044;-71
2022/05/14 03:09:41;;;;;;;22.80;13.48;;;13.40;99.90;;;;;;5210464;28;20080;-73
2022/05/14 03:12:15;;;;;;;18.20;12.52;;;13.40;99.90;;;;;;5210425;28;20128;-72
2022/05/14 03:14:51;;;;;;;20.30;13.88;;;13.50;99.90;;;;;;5209186;28;20049;-72
2022/05/14 03:17:24;;;;;;;17.23;13.57;;;13.40;99.90;;;;;;5205539;28;20394;-71
2022/05/14 03:19:57;;;;;;;17.55;12.60;;;13.30;99.90;;;;;;5199409;28;20049;-72
2022/05/14 03:22:30;;;;;;;15.27;11.68;;;13.20;99.90;;;;;;5208462;28;20467;-72
2022/05/14 03:25:04;;;;;;;22.92;12.80;;;13.10;99.90;;;;;;5209910;28;20655;-72
2022/05/14 03:27:37;;;;;;;16.50;11.90;;;13.10;99.90;;;;;;5206057;28;20051;-73
2022/05/14 03:30:11;;;;;;;22.02;12.93;;;13.10;99.90;;;;;;5210624;28;20093;-72
2022/05/14 03:32:43;;;;;;;21.38;14.13;;;13.10;99.90;;;;;;5208386;28;20053;-72
2022/05/14 03:35:16;;;;;;;23.48;12.98;;;13.00;99.90;;;;;;5201819;28;20044;-70
2022/05/14 03:37:49;;;;;;;16.25;12.45;;;13.10;99.90;;;;;;5207846;28;20048;-72
2022/05/14 03:40:21;;;;;;;16.50;12.82;;;13.10;99.90;;;;;;5187727;28;20422;-71
2022/05/14 03:42:54;;;;;;;18.83;11.83;;;13.20;99.90;;;;;;5209262;28;20377;-72
2022/05/14 03:45:27;;;;;;;17.77;12.13;;;13.20;99.90;;;;;;5224745;28;20036;-71
2022/05/14 03:48:00;;;;;;;19.48;10.57;;;13.20;99.90;;;;;;5207153;28;20339;-72
2022/05/14 03:50:32;;;;;;;20.40;13.48;;;13.20;99.90;;;;;;5224139;28;20501;-70
2022/05/14 03:53:05;;;;;;;15.27;10.90;;;13.20;99.90;;;;;;5207672;28;20056;-72
2022/05/14 03:55:37;;;;;;;16.30;11.52;;;13.20;99.90;;;;;;5208070;28;20132;-72
2022/05/14 03:58:11;;;;;;;17.47;12.20;;;13.10;99.90;;;;;;5204240;28;20293;-72
2022/05/14 04:00:44;;;;;;;20.00;15.18;;;13.10;99.90;;;;;;5223510;28;20761;-72
2022/05/14 04:03:17;;;;;;;19.92;14.40;;;13.00;99.90;;;;;;5210210;28;20052;-71
2022/05/14 04:05:49;;;;;;;19.13;13.18;;;13.00;99.90;;;;;;5170551;28;20052;-72
2022/05/14 04:08:22;;;;;;;19.48;12.77;;;13.00;99.90;;;;;;5208810;28;20048;-71
2022/05/14 04:10:54;;;;;;;22.10;14.85;;;13.00;99.90;;;;;;5210669;28;20037;-71
2022/05/14 04:13:27;;;;;;;27.42;15.68;;;13.00;99.90;;;;;;5210779;28;20047;-73
2022/05/14 04:15:59;;;;;;;24.85;13.30;;;13.00;99.90;;;;;;5210105;28;20060;-72
2022/05/14 04:18:33;;;;;;;18.98;13.75;;;12.90;99.90;;;;;;5220516;28;20080;-71
2022/05/14 04:21:05;;;;;;;18.38;12.90;;;13.00;99.90;;;;;;5203685;28;20050;-73
2022/05/14 04:23:38;;;;;;;20.73;13.45;;;13.00;99.90;;;;;;5201156;28;20060;-72
2022/05/14 04:26:11;;;;;;;15.70;11.93;;;13.10;99.90;;;;;;5208610;28;20041;-72
2022/05/14 04:28:43;;;;;;;21.05;13.25;;;13.10;99.90;;;;;;5207306;28;20052;-71
2022/05/14 04:31:16;;;;;;;23.30;12.88;;;13.10;99.90;;;;;;5185856;28;20056;-70
2022/05/14 04:33:49;;;;;;;19.93;11.43;;;13.20;99.90;;;;;;5219371;28;20044;-71
2022/05/14 04:36:22;;;;;;;18.67;12.60;;;13.30;99.90;;;;;;5201700;28;20060;-71
2022/05/14 04:38:55;;;;;;;15.93;11.40;;;13.30;99.90;;;;;;5208417;28;20049;-71
2022/05/14 04:41:30;;;;;;;15.75;11.82;;;13.30;99.90;;;;;;5209787;28;20072;-72
2022/05/14 04:44:05;;;;;;;17.63;12.23;;;13.40;99.90;;;;;;5191085;28;20055;-71
2022/05/14 04:46:37;;;;;;;23.90;14.93;;;13.50;99.90;;;;;;5192264;28;20053;-71
2022/05/14 04:49:10;;;;;;;17.13;13.88;;;13.60;99.90;;;;;;5203864;28;20495;-71
2022/05/14 04:51:42;;;;;;;20.15;13.75;;;13.70;99.90;;;;;;5204488;28;20048;-72
2022/05/14 04:54:15;;;;;;;23.15;15.18;;;13.70;99.90;;;;;;5208185;28;20044;-72
2022/05/14 04:56:49;;;;;;;;;;;13.70;99.90;;;;;;5207954;28;20470;-73
2022/05/14 04:59:21;;;;;;;20.23;13.52;;;13.70;99.90;;;;;;5207407;28;19932;-72
2022/05/14 05:04:49;;;;;;;17.63;13.48;;;13.80;99.90;;;;;;5203468;28;20049;-71
2022/05/14 05:07:22;;;;;;;17.80;14.10;;;13.90;99.90;;;;;;5210849;28;20519;-70
2022/05/14 05:09:55;;;;;;;22.73;11.93;;;14.00;99.90;;;;;;5194971;28;20054;-71
2022/05/14 05:12:28;;;;;;;18.25;13.45;;;14.10;99.90;;;;;;5207092;28;20037;-72
2022/05/14 05:15:00;;;;;;;21.55;13.30;;;14.20;99.90;;;;;;5208099;28;20053;-71
2022/05/14 05:17:34;;;;;;;25.20;13.23;;;14.30;99.90;;;;;;5207935;28;20044;-71
2022/05/14 05:20:08;;;;;;;24.38;15.55;;;14.30;99.90;;;;;;5205236;28;20670;-72
2022/05/14 05:22:42;;;;;;;26.02;16.17;;;14.50;99.90;;;;;;5206950;28;20044;-72
2022/05/14 05:25:14;;;;;;;24.30;16.13;;;14.50;99.90;;;;;;5202969;28;20429;-72
2022/05/14 05:27:48;;;;;;;20.77;15.30;;;14.60;99.90;;;;;;5205554;28;20048;-72
2022/05/14 05:30:20;;;;;;;19.58;14.40;;;14.70;99.90;;;;;;5200990;28;20470;-73
2022/05/14 05:32:52;;;;;;;22.45;16.60;;;14.80;99.90;;;;;;5200824;28;20132;-72
2022/05/14 05:35:26;;;;;;;19.58;14.20;;;14.90;99.90;;;;;;5207734;28;20048;-71
2022/05/14 05:37:58;;;;;;;20.15;16.13;;;14.90;99.90;;;;;;5208008;28;20973;-72
2022/05/14 05:40:31;;;;;;;18.23;13.85;;;15.00;99.90;;;;;;5209062;28;20056;-72
2022/05/14 05:43:05;;;;;;;19.27;14.77;;;15.10;99.90;;;;;;5205214;28;20417;-72
2022/05/14 05:45:40;;;;;;;19.95;14.35;;;15.20;99.90;;;;;;5201065;28;20053;-72
2022/05/14 05:48:13;;;;;;;20.35;15.05;;;15.30;99.90;;;;;;5201548;28;20041;-73
2022/05/14 05:50:48;;;;;;;20.40;14.52;;;15.40;99.90;;;;;;5203570;28;20048;-71
2022/05/14 05:56:46;;;;;;;20.35;13.32;;;15.50;99.90;;;;;;5209421;28;20055;-73
2022/05/14 05:59:05;;;;;;;21.75;14.27;;;15.70;99.90;;;;;;5207479;28;20693;-73
2022/05/14 06:01:37;;;;;;;21.92;14.32;;;15.70;99.90;;;;;;5199874;28;20069;-73
2022/05/14 06:04:10;;;;;;;22.25;14.98;;;15.70;99.90;;;;;;5200603;28;20045;-72
2022/05/14 06:06:43;;;;;;;21.42;15.60;;;15.80;99.90;;;;;;5209359;28;20060;-72
2022/05/14 06:09:19;;;;;;;17.75;13.77;;;15.90;99.90;;;;;;5188312;28;20049;-73
2022/05/14 06:11:52;;;;;;;20.45;14.95;;;15.90;99.90;;;;;;5202851;28;20424;-72
2022/05/14 06:14:25;;;;;;;22.57;15.53;;;16.00;99.90;;;;;;5185518;28;20040;-72
2022/05/14 06:16:58;;;;;;;21.55;14.48;;;16.10;99.90;;;;;;5201589;28;20524;-73
2022/05/14 06:19:30;;;;;;;18.45;13.70;;;16.20;99.90;;;;;;5205698;28;20040;-70
2022/05/14 06:22:04;;;;;;;20.60;14.40;;;16.50;99.90;;;;;;5201415;28;20064;-71
2022/05/14 06:24:37;;;;;;;;;;;16.60;99.90;;;;;;5201346;28;20072;-71
2022/05/14 06:27:09;;;;;;;19.95;13.20;;;16.60;99.90;;;;;;5214947;28;19925;-71
2022/05/14 06:29:42;;;;;;;20.02;12.90;;;16.70;99.90;;;;;;5206677;28;20120;-73
2022/05/14 06:32:14;;;;;;;19.15;11.27;;;16.90;99.90;;;;;;5205576;28;20592;-72
2022/05/14 06:34:48;;;;;;;20.52;10.95;;;17.10;99.90;;;;;;5227575;28;20049;-72
2022/05/14 06:37:20;;;;;;;14.43;6.95;;;17.10;99.90;;;;;;5197300;28;20053;-73
2022/05/14 06:39:53;;;;;;;10.95;5.60;;;17.20;99.90;;;;;;5204518;28;20040;-72
2022/05/14 06:42:25;;;;;;;7.32;5.40;;;17.10;99.90;;;;;;5211223;28;20045;-71
2022/05/14 06:44:59;;;;;;;11.52;6.38;;;17.10;99.60;;;;;;5205888;28;20067;-73
2022/05/14 06:47:32;;;;;;;10.68;6.70;;;17.20;99.60;;;;;;5209759;28;20033;-72
2022/05/14 06:50:05;;;;;;;14.67;6.63;;;17.20;99.00;;;;;;5211915;28;20037;-71
2022/05/14 06:52:42;;;;;;;15.73;7.35;;;17.30;99.20;;;;;;5212140;28;20051;-72
2022/05/14 06:55:19;;;;;;;17.65;7.32;;;17.30;99.90;;;;;;5204057;28;20048;-73
2022/05/14 06:57:51;;;;;;;13.93;7.60;;;17.40;99.80;;;;;;5209847;28;20053;-74
2022/05/14 07:00:25;;;;;;;12.52;7.13;;;17.60;97.40;;;;;;5208018;28;20941;-73
2022/05/14 07:06:37;;;;;;;11.90;5.93;;;17.50;94.90;;;;;;5199078;28;20078;-72
2022/05/14 07:08:41;;;;;;;9.32;6.43;;;17.70;94.30;;;;;;5209608;28;20064;-71
2022/05/14 07:11:14;;;;;;;15.18;6.93;;;17.80;94.40;;;;;;5209870;28;20579;-71
2022/05/14 07:13:47;;;;;;;9.60;6.00;;;17.90;93.80;;;;;;5209113;28;20056;-70
2022/05/14 07:16:19;;;;;;;9.23;6.10;;;18.00;94.10;;;;;;5206600;28;20800;-72
2022/05/14 07:18:52;;;;;;;8.20;5.25;;;18.20;94.20;;;;;;5207409;28;20952;-71
2022/05/14 07:21:24;;;;;;;11.65;5.60;;;18.30;91.90;;;;;;5204853;28;20049;-71
2022/05/14 07:23:57;;;;;;;8.65;6.00;;;18.30;92.60;;;;;;5204385;28;21071;-73
2022/05/14 07:26:30;;;;;;;7.57;5.50;;;18.50;92.40;;;;;;5202701;28;20049;-72
2022/05/14 07:29:09;;;;;;;14.82;5.80;;;18.60;91.40;;;;;;5207541;28;20452;-73
2022/05/14 07:31:42;;;;;;;7.47;4.72;;;18.70;90.60;;;;;;5204175;28;20061;-72
2022/05/14 07:34:15;;;;;;;7.10;4.53;;;18.70;86.30;;;;;;5204605;28;20048;-72
2022/05/14 07:36:50;;;;;;;7.13;4.23;;;18.80;83.90;;;;;;5207737;28;20045;-73
2022/05/14 07:39:25;;;;;;;12.52;5.10;;;18.90;81.50;;;;;;5207504;28;20279;-72
2022/05/14 07:42:02;;;;;;;5.95;3.72;;;18.90;82.20;;;;;;5207136;28;20743;-73
2022/05/14 07:44:39;;;;;;;10.80;4.00;;;19.00;79.50;;;;;;5201218;28;20044;-72
2022/05/14 07:47:12;;;;;;;8.45;3.63;;;19.20;78.20;;;;;;5206380;28;20048;-72
2022/05/14 07:49:47;;;;;;;9.38;3.72;;;19.30;75.90;;;;;;5207646;28;20049;-72
2022/05/14 07:52:21;;;;;;;4.88;2.40;;;19.20;72.60;;;;;;5207792;28;20045;-69
2022/05/14 07:54:54;;;;;;;7.45;2.80;;;19.00;71.00;;;;;;5205619;28;20991;-71
2022/05/14 07:57:27;;;;;;;8.18;3.28;;;19.00;73.60;;;;;;5208167;28;20440;-71
2022/05/14 07:59:59;;;;;;;13.85;3.42;;;19.00;72.90;;;;;;5203450;28;20706;-72
2022/05/14 08:02:34;;;;;;;8.32;3.22;;;18.90;73.60;;;;;;5204376;28;20129;-69
2022/05/14 08:05:09;;;;;;;8.18;3.60;;;18.90;74.60;;;;;;5208670;28;20424;-72
2022/05/14 08:07:42;;;;;;;5.28;3.20;;;19.00;73.50;;;;;;5210968;28;20041;-71
2022/05/14 08:10:16;;;;;;;13.90;3.65;;;19.00;72.60;;;;;;5206127;28;20068;-71
2022/05/14 08:12:51;;;;;;;;;;;19.10;75.30;;;;;;5209451;28;20049;-72
2022/05/14 08:15:27;;;;;;;9.10;3.20;;;19.20;73.30;;;;;;5207924;28;19944;-72
2022/05/14 08:18:00;;;;;;;;;;;19.60;73.10;;;;;;5205287;28;20428;-71
2022/05/14 08:20:33;;;;;;;10.18;3.63;;;19.70;71.60;;;;;;5206180;28;19932;-71
2022/05/14 08:26:03;;;;;;;9.02;3.05;;;19.90;70.50;;;;;;5207238;28;20060;-72
2022/05/14 08:28:35;;;;;;;;;;;20.10;70.90;;;;;;5207700;28;20045;-73
2022/05/14 08:31:08;;;;;;;10.75;3.30;;;20.10;70.10;;;;;;5207574;28;19924;-73
2022/05/14 08:33:40;;;;;;;8.57;2.80;;;20.10;70.70;;;;;;5204913;28;20060;-73
2022/05/14 08:36:13;;;;;;;11.43;3.08;;;20.10;69.30;;;;;;5209143;28;20150;-75
2022/05/14 08:38:46;;;;;;;9.18;3.42;;;20.20;68.00;;;;;;5206322;28;20059;-73
2022/05/14 08:41:18;;;;;;;6.55;2.90;;;20.30;68.60;;;;;;5210446;28;20055;-71
2022/05/14 08:43:55;;;;;;;6.93;2.67;;;20.40;67.40;;;;;;5207618;28;20053;-72
2022/05/14 08:46:33;;;;;;;7.28;2.83;;;20.30;66.10;;;;;;5207061;28;20057;-73
2022/05/14 08:49:13;;;;;;;13.95;2.95;;;20.20;66.40;;;;;;5204156;28;20068;-72
2022/05/14 08:51:50;;;;;;;6.30;2.83;;;20.30;66.90;;;;;;5209405;28;20052;-71
2022/05/14 08:54:23;;;;;;;6.57;2.85;;;20.30;65.30;;;;;;5222978;28;20049;-71
2022/05/14 08:57:18;;;;;;;8.40;2.73;;;20.40;65.10;;;;;;5210775;28;20060;-71
2022/05/14 09:00:00;;;;;;;7.30;3.35;;;20.40;64.40;;;;;;5206601;28;20049;-73
2022/05/14 09:02:40;;;;;;;8.55;2.90;;;20.40;64.30;;;;;;5205468;28;20049;-72
2022/05/14 09:05:15;;;;;;;8.00;3.33;;;20.50;64.80;;;;;;5206929;28;20773;-72
2022/05/14 09:07:50;;;;;;;6.63;3.03;;;20.40;63.50;;;;;;5210002;28;20049;-71
2022/05/14 09:10:32;;;;;;;7.43;3.05;;;20.40;64.30;;;;;;5209274;28;20417;-71
2022/05/14 09:13:19;;;;;;;6.68;3.30;;;20.30;65.80;;;;;;5207545;28;20046;-72
2022/05/14 09:15:57;;;;;;;8.02;2.88;;;20.30;64.80;;;;;;5208928;28;20377;-72
2022/05/14 09:18:32;;;;;;;8.98;2.60;;;20.40;64.60;;;;;;5206873;28;20045;-72
2022/05/14 09:21:15;;;;;;;7.43;3.17;;;20.30;64.80;;;;;;5205053;28;20052;-72
2022/05/14 09:24:16;;;;;;;5.40;2.63;;;20.40;65.40;;;;;;5208806;28;20053;-72
2022/05/14 09:26:48;;;;;;;9.25;3.40;;;20.70;63.80;;;;;;5207637;28;20064;-71
2022/05/14 09:29:41;;;;;;;7.13;2.85;;;20.70;63.40;;;;;;5203994;28;20046;-71
2022/05/14 09:32:16;;;;;;;6.40;3.40;;;20.70;63.10;;;;;;5208867;28;20043;-71
2022/05/14 09:34:49;;;;;;;5.40;2.58;;;20.70;65.00;;;;;;5201269;28;20061;-70
2022/05/14 09:37:42;;;;;;;8.18;3.13;;;20.70;64.80;;;;;;5199661;28;20041;-71
2022/05/14 09:40:27;;;;;;;8.35;3.42;;;20.60;64.80;;;;;;5198491;28;20071;-71
2022/05/14 09:43:21;;;;;;;5.70;2.92;;;20.60;63.90;;;;;;5205683;28;20037;-71
2022/05/14 09:45:56;;;;;;;6.97;3.40;;;20.40;64.60;;;;;;5208728;28;20037;-71
2022/05/14 09:48:51;;;;;;;8.75;3.15;;;20.20;64.40;;;;;;5209702;28;20381;-70
2022/05/14 09:51:30;;;;;;;7.05;2.80;;;20.20;65.50;;;;;;5205359;28;20037;-70
2022/05/14 09:54:18;;;;;;;7.30;3.63;;;20.20;66.20;;;;;;5203642;28;20040;-71
2022/05/14 09:57:12;;;;;;;12.27;3.25;;;20.30;65.00;;;;;;5205142;28;20037;-71
2022/05/14 10:00:05;;;;;;;7.27;3.20;;;20.50;66.80;;;;;;5211206;28;20455;-71
2022/05/14 10:03:14;;;;;;;9.80;3.53;;;20.80;65.30;;;;;;5205836;28;20056;-71
2022/05/14 10:06:05;;;;;;;7.55;3.25;;;20.90;65.60;;;;;;5208642;28;20051;-71
2022/05/14 10:09:08;;;;;;;8.40;3.65;;;21.10;65.20;;;;;;5215001;28;20048;-71
2022/05/14 10:11:45;;;;;;;5.78;3.50;;;21.30;62.80;;;;;;5214267;28;20036;-71
2022/05/14 10:14:42;;;;;;;8.27;3.92;;;21.30;63.70;;;;;;5208456;28;20045;-71
2022/05/14 10:17:37;;;;;;;7.28;3.70;;;21.20;62.80;;;;;;5206917;28;20048;-70
2022/05/14 10:20:29;;;;;;;9.10;3.35;;;21.20;62.50;;;;;;5212397;28;20044;-71
2022/05/14 10:26:46;;;;;;;8.07;3.95;;;21.80;60.80;;;;;;5215721;28;20044;-69
2022/05/14 10:29:24;;;;;;;8.52;3.83;;;22.20;58.90;;;;;;5203871;28;20045;-71
2022/05/14 10:32:09;;;;;;;8.02;3.80;;;22.30;58.80;;;;;;5209999;28;20049;-71
2022/05/14 10:35:11;;;;;;;7.53;3.58;;;22.50;59.50;;;;;;5212871;28;20052;-69
2022/05/14 10:37:59;;;;;;;8.48;4.05;;;22.80;59.30;;;;;;5228396;28;20046;-72
2022/05/14 10:40:44;;;;;;;7.18;4.10;;;23.00;58.10;;;;;;5214292;28;20507;-71
2022/05/14 10:43:29;;;;;;;9.02;3.35;;;22.90;57.40;;;;;;5211867;28;20120;-70
2022/05/14 10:46:08;;;;;;;6.65;3.63;;;23.00;57.30;;;;;;5213567;28;20045;-72
2022/05/14 10:49:01;;;;;;;7.32;3.40;;;23.00;57.50;;;;;;5203291;28;20045;-72
2022/05/14 10:51:46;;;;;;;6.78;3.50;;;23.40;57.30;;;;;;5215535;28;20037;-72
2022/05/14 10:54:22;;;;;;;7.18;3.53;;;23.80;56.10;;;;;;5210785;28;20267;-71
2022/05/14 10:56:59;;;;;;;10.77;3.30;;;23.90;57.30;;;;;;5211133;28;20047;-71
2022/05/14 11:00:11;;;;;;;11.45;3.70;;;24.30;56.50;;;;;;5206724;28;20509;-71
2022/05/14 11:03:09;;;;;;;5.75;3.85;;;24.30;54.80;;;;;;5213864;28;20053;-72
2022/05/14 11:06:07;;;;;;;6.80;3.10;;;24.40;53.90;;;;;;5212300;28;20059;-72
2022/05/14 11:08:46;;;;;;;8.10;3.92;;;24.60;55.00;;;;;;5213277;28;20069;-71
2022/05/14 11:11:31;;;;;;;13.13;3.25;;;25.00;55.80;;;;;;5197368;28;20052;-72
2022/05/14 11:14:08;;;;;;;8.48;3.47;;;25.10;54.20;;;;;;5209028;28;20615;-72
2022/05/14 11:16:46;;;;;;;5.95;3.35;;;25.10;55.30;;;;;;5214197;28;20447;-73
2022/05/14 11:19:28;;;;;;;6.82;3.40;;;25.30;55.90;;;;;;5212196;28;20065;-72
2022/05/14 11:22:01;;;;;;;6.75;3.60;;;25.50;55.00;;;;;;5206821;28;20051;-72
2022/05/14 11:24:41;;;;;;;5.78;4.05;;;25.40;53.20;;;;;;5207570;28;20047;-70
2022/05/14 11:27:27;;;;;;;9.60;3.70;;;25.50;52.60;;;;;;5206849;28;22177;-72
2022/05/14 11:30:04;;;;;;;7.18;3.20;;;25.80;50.30;;;;;;5211396;28;20523;-72
2022/05/14 11:32:47;;;;;;;6.30;3.53;;;25.90;52.30;;;;;;5210751;28;20041;-72
2022/05/14 11:35:20;;;;;;;9.60;3.63;;;26.60;53.20;;;;;;5207432;28;20060;-72
2022/05/14 11:37:52;;;;;;;10.75;3.97;;;26.70;51.80;;;;;;5210038;28;20417;-72
2022/05/14 11:40:28;;;;;;;9.23;3.65;;;26.40;51.60;;;;;;5209678;28;20052;-72
2022/05/14 11:43:22;;;;;;;10.93;3.85;;;26.20;51.00;;;;;;5206513;28;20412;-72
2022/05/14 11:46:04;;;;;;;8.95;3.63;;;26.00;52.30;;;;;;5211364;28;20053;-72
2022/05/14 11:48:49;;;;;;;7.57;3.55;;;25.90;51.60;;;;;;5211973;28;20151;-70
2022/05/14 11:51:52;;;;;;;6.60;3.60;;;25.90;51.90;;;;;;5210636;28;20052;-72
2022/05/14 11:54:34;;;;;;;6.30;3.47;;;26.10;51.40;;;;;;5204336;28;20048;-71
2022/05/14 11:57:24;;;;;;;8.38;3.95;;;26.60;50.40;;;;;;5202804;28;20037;-72
2022/05/14 12:00:06;;;;;;;7.13;4.00;;;26.60;49.40;;;;;;5208973;28;20060;-72
2022/05/14 12:02:52;;;;;;;7.00;4.03;;;26.40;49.20;;;;;;5211292;28;20496;-73
2022/05/14 12:05:33;;;;;;;8.20;3.67;;;26.50;49.50;;;;;;5207267;28;20053;-72
2022/05/14 12:08:15;;;;;;;5.90;3.65;;;26.40;49.50;;;;;;5210716;28;20064;-73
2022/05/14 12:11:00;;;;;;;11.68;3.90;;;26.70;49.10;;;;;;5212951;28;20064;-72
2022/05/14 12:13:40;;;;;;;11.05;4.28;;;27.20;48.80;;;;;;5209090;28;20044;-72
2022/05/14 12:16:13;;;;;;;6.82;4.10;;;27.50;48.70;;;;;;5227816;28;20524;-72
2022/05/14 12:18:46;;;;;;;7.50;3.28;;;27.40;49.10;;;;;;5210208;28;20045;-73
2022/05/14 12:21:20;;;;;;;8.05;3.72;;;27.10;50.50;;;;;;5209193;28;20045;-72
2022/05/14 12:23:53;;;;;;;9.48;4.28;;;27.00;50.30;;;;;;5213192;28;20037;-72
2022/05/14 12:26:31;;;;;;;8.77;3.85;;;26.60;49.90;;;;;;5209940;28;20045;-72
2022/05/14 12:29:20;;;;;;;8.38;4.20;;;26.20;50.70;;;;;;5223956;28;20048;-72
2022/05/14 12:34:48;;;;;;;8.45;3.97;;;25.90;51.40;;;;;;5206853;28;20060;-72
2022/05/14 12:37:25;;;;;;;5.68;3.78;;;25.80;51.80;;;;;;5212574;28;20040;-73
2022/05/14 12:39:58;;;;;;;6.72;3.40;;;26.30;52.80;;;;;;5202931;28;20057;-73
2022/05/14 12:42:41;;;;;;;7.03;4.35;;;26.80;52.00;;;;;;5213996;28;20053;-72
2022/05/14 12:45:13;;;;;;;9.77;3.58;;;27.40;50.70;;;;;;5209552;28;20049;-72
2022/05/14 12:47:46;;;;;;;7.88;3.80;;;27.70;50.30;;;;;;5213117;28;20053;-72
2022/05/14 12:50:30;;;;;;;7.25;4.15;;;27.70;49.30;;;;;;5196796;28;20045;-72
2022/05/14 12:53:07;;;;;;;8.70;4.32;;;28.00;49.30;;;;;;5208837;28;20049;-72
2022/05/14 12:55:43;;;;;;;7.90;4.40;;;28.00;50.10;;;;;;5209323;28;20063;-73
2022/05/14 12:58:17;;;;;;;7.30;3.85;;;28.50;49.70;;;;;;5207829;28;20049;-73
2022/05/14 13:00:52;;;;;;;4.47;2.72;;;28.50;47.70;;;;;;5209255;28;20086;-71
2022/05/14 13:03:41;;;;;;;7.35;3.78;;;28.40;48.30;;;;;;5207510;28;20049;-70
2022/05/14 13:06:19;;;;;;;9.05;4.57;;;27.70;47.70;;;;;;5211309;28;20052;-71
2022/05/14 13:08:57;;;;;;;8.52;4.03;;;27.30;49.50;;;;;;5210195;28;20063;-71
2022/05/14 13:11:30;;;;;;;7.05;3.33;;;27.50;50.20;;;;;;5204869;28;20721;-71
2022/05/14 13:14:13;;;;;;;;;;;28.10;49.10;;;;;;5207608;28;20534;-71
2022/05/14 13:17:07;;;;;;;9.90;4.10;;;28.00;48.90;;;;;;5208536;28;20389;-71
2022/05/14 13:19:44;;;;;;;5.10;3.22;;;28.60;46.00;;;;;;5207944;28;20084;-69
2022/05/14 13:22:33;;;;;;;7.90;3.00;;;29.10;47.50;;;;;;5210065;28;20060;-70
2022/05/14 13:25:29;;;;;;;8.10;4.05;;;29.20;47.10;;;;;;5202336;28;20554;-71
2022/05/14 13:28:26;;;;;;;7.18;3.35;;;28.80;46.20;;;;;;5207877;28;20049;-71
2022/05/14 13:31:01;;;;;;;14.07;3.30;;;29.00;47.70;;;;;;5208393;28;20060;-71
2022/05/14 13:33:36;;;;;;;7.47;3.50;;;29.10;48.20;;;;;;5207510;28;20040;-72
2022/05/14 13:39:12;;;;;;;7.65;3.35;;;29.10;45.80;;;;;;5207872;28;21590;-71
2022/05/14 13:41:46;;;;;;;9.82;4.43;;;29.20;46.70;;;;;;5224804;28;20543;-70
2022/05/14 13:44:23;;;;;;;6.43;3.40;;;28.80;45.20;;;;;;5208016;28;20044;-72
2022/05/14 13:47:00;;;;;;;6.15;3.22;;;29.10;46.00;;;;;;5206792;28;20041;-70
2022/05/14 13:49:35;;;;;;;12.85;4.43;;;29.20;46.30;;;;;;5203824;28;20045;-72
2022/05/14 13:52:08;;;;;;;5.28;3.22;;;29.20;45.60;;;;;;5209575;28;20045;-72
2022/05/14 13:54:42;;;;;;;6.60;3.25;;;29.20;45.50;;;;;;5207222;28;20049;-73